Pinehurst, California
Current Conditions -  °F | °C
As of 12:15 PM on Friday 31 Oct 2014 (Local Time) from KVIS Reporting Station
NA  
Wind Chill: 70°   Ceiling: NA
Heat Index: 70°   Visibility: 10mi
Dew Point: 52°   Wind: 0mph
Humidity: 53%   Direction: NA
Pressure: 29.88"   Gusts: NA
Location:  36.6891°N, 119.03°W
Report Text: KVIS 311915Z 00000KT 10SM 21/11 A2988 RMK AO1
Loading
Personal Weather Stations






























Interactive Weather Map
Tropical Storm Tracking
New forecast layout! Learn more

10-Day Weather Forecast

Advertisements
Track Severe Weather on mobile